Time;durP1;ratioP1;P1;durP2;ratioP2;P2;SDS_P1;SDS_P2;PMS_P1;PMS_P2;Temp;Humidity;BMP_temperature;BMP_pressure;BME280_temperature;BME280_humidity;BME280_pressure;Samples;Min_cycle;Max_cycle;Signal;HPM_P1;HPM_P2
2023/04/03 00:01:33;;;;;;;5.50;1.63;;;;;;;;;;5031403;28;20382;-60
2023/04/03 00:04:00;;;;;;;5.88;1.67;;;;;;;;;;5029826;28;20062;-60
2023/04/03 00:06:26;;;;;;;7.35;2.05;;;;;;;;;;5031015;28;20021;-61
2023/04/03 00:08:52;;;;;;;4.10;1.40;;;;;;;;;;5031036;28;20114;-61
2023/04/03 00:11:18;;;;;;;10.45;1.73;;;;;;;;;;5030829;28;20025;-61
2023/04/03 00:13:45;;;;;;;8.10;2.15;;;;;;;;;;5031245;28;20449;-61
2023/04/03 00:16:11;;;;;;;12.75;2.00;;;;;;;;;;5031246;28;20389;-60
2023/04/03 00:18:38;;;;;;;6.50;1.58;;;;;;;;;;5030885;28;20040;-62
2023/04/03 00:21:04;;;;;;;9.88;2.45;;;;;;;;;;5031123;28;20112;-60
2023/04/03 00:23:31;;;;;;;13.50;2.70;;;;;;;;;;5030936;28;20033;-61
2023/04/03 00:25:57;;;;;;;6.28;1.95;;;;;;;;;;5031099;28;20431;-61
2023/04/03 00:28:23;;;;;;;6.20;1.63;;;;;;;;;;5031128;28;20025;-62
2023/04/03 00:30:50;;;;;;;8.43;1.90;;;;;;;;;;5031024;28;20036;-60
2023/04/03 00:33:16;;;;;;;6.38;1.80;;;;;;;;;;5030791;28;20017;-60
2023/04/03 00:35:42;;;;;;;8.05;3.08;;;;;;;;;;5030706;28;20022;-61
2023/04/03 00:38:09;;;;;;;3.38;1.73;;;;;;;;;;5030979;28;20037;-62
2023/04/03 00:40:36;;;;;;;3.22;1.70;;;;;;;;;;5030668;28;20500;-61
2023/04/03 00:43:02;;;;;;;6.72;2.08;;;;;;;;;;5030870;28;20394;-61
2023/04/03 00:45:33;;;;;;;6.80;1.80;;;;;;;;;;5031093;28;20022;-62
2023/04/03 00:48:00;;;;;;;8.02;1.48;;;;;;;;;;5030854;28;20026;-60
2023/04/03 00:50:28;;;;;;;10.57;2.28;;;;;;;;;;5030714;28;20022;-62
2023/04/03 00:52:55;;;;;;;8.00;2.20;;;;;;;;;;5032416;28;20029;-60
2023/04/03 00:55:21;;;;;;;9.60;2.05;;;;;;;;;;5034331;28;20471;-61
2023/04/03 00:57:47;;;;;;;7.22;1.85;;;;;;;;;;5032998;28;20026;-61
2023/04/03 01:00:17;;;;;;;4.90;2.03;;;;;;;;;;5034473;28;20056;-60
2023/04/03 01:02:43;;;;;;;10.23;2.28;;;;;;;;;;5034140;28;20029;-61
2023/04/03 01:05:09;;;;;;;10.02;1.80;;;;;;;;;;5034030;28;20033;-59
2023/04/03 01:07:36;;;;;;;3.70;1.55;;;;;;;;;;5034357;28;20101;-60
2023/04/03 01:10:05;;;;;;;9.10;2.22;;;;;;;;;;5034236;28;20073;-61
2023/04/03 01:12:33;;;;;;;9.40;1.98;;;;;;;;;;5034303;28;20112;-60
2023/04/03 01:15:00;;;;;;;5.30;1.83;;;;;;;;;;5034136;28;20490;-60
2023/04/03 01:17:30;;;;;;;10.70;2.20;;;;;;;;;;5032434;28;20116;-59
2023/04/03 01:20:18;;;;;;;10.15;1.50;;;;;;;;;;5033939;28;20412;-61
2023/04/03 01:22:52;;;;;;;6.80;1.77;;;;;;;;;;5033804;28;20033;-61
2023/04/03 01:25:18;;;;;;;11.40;2.00;;;;;;;;;;5034148;28;20035;-61
2023/04/03 01:27:44;;;;;;;6.47;2.55;;;;;;;;;;5033824;28;20263;-61
2023/04/03 01:30:11;;;;;;;6.22;1.75;;;;;;;;;;5033916;28;20147;-61
2023/04/03 01:32:37;;;;;;;6.15;1.77;;;;;;;;;;5034117;28;20020;-60
2023/04/03 01:35:03;;;;;;;6.25;1.77;;;;;;;;;;5033928;28;20021;-61
2023/04/03 01:37:29;;;;;;;8.48;2.13;;;;;;;;;;5033538;28;20029;-61
2023/04/03 01:39:55;;;;;;;10.02;1.80;;;;;;;;;;5033633;28;20033;-61
2023/04/03 01:42:21;;;;;;;8.10;1.90;;;;;;;;;;5033216;28;20371;-60
2023/04/03 01:44:47;;;;;;;8.07;2.15;;;;;;;;;;5033516;28;20083;-61
2023/04/03 01:47:13;;;;;;;9.82;1.52;;;;;;;;;;5033713;28;20032;-61
2023/04/03 01:49:39;;;;;;;8.02;1.80;;;;;;;;;;5033204;28;20029;-60
2023/04/03 01:52:05;;;;;;;11.27;1.85;;;;;;;;;;5033282;28;20025;-60
2023/04/03 01:54:31;;;;;;;7.97;1.70;;;;;;;;;;5033444;28;20029;-61
2023/04/03 01:56:57;;;;;;;6.28;1.95;;;;;;;;;;5033212;28;20112;-60
2023/04/03 01:59:23;;;;;;;11.15;2.20;;;;;;;;;;5031889;28;20604;-59
2023/04/03 02:01:49;;;;;;;8.82;1.70;;;;;;;;;;5033138;28;20018;-61
2023/04/03 02:04:16;;;;;;;9.52;1.70;;;;;;;;;;5032680;28;20049;-60
2023/04/03 02:06:42;;;;;;;8.48;1.95;;;;;;;;;;5032840;28;20027;-60
2023/04/03 02:09:08;;;;;;;6.28;1.63;;;;;;;;;;5033049;28;20060;-60
2023/04/03 02:11:34;;;;;;;13.98;2.28;;;;;;;;;;5033018;28;20082;-60
2023/04/03 02:14:00;;;;;;;12.05;2.78;;;;;;;;;;5032794;28;20167;-60
2023/04/03 02:16:26;;;;;;;7.15;1.80;;;;;;;;;;5032925;28;20028;-61
2023/04/03 02:18:52;;;;;;;5.18;1.42;;;;;;;;;;5032898;28;20068;-61
2023/04/03 02:21:18;;;;;;;10.38;1.65;;;;;;;;;;5032745;28;20025;-61
2023/04/03 02:23:44;;;;;;;12.30;2.10;;;;;;;;;;5032795;28;20442;-60
2023/04/03 02:26:11;;;;;;;9.90;2.25;;;;;;;;;;5032502;28;20018;-60
2023/04/03 02:28:38;;;;;;;5.78;2.08;;;;;;;;;;5032705;28;20025;-61
2023/04/03 02:31:04;;;;;;;7.72;1.80;;;;;;;;;;5032835;28;20021;-61
2023/04/03 02:33:31;;;;;;;8.30;1.70;;;;;;;;;;5032736;28;20105;-60
2023/04/03 02:35:57;;;;;;;8.50;1.95;;;;;;;;;;5032309;28;20531;-61
2023/04/03 02:38:23;;;;;;;6.45;1.65;;;;;;;;;;5032191;28;20179;-60
2023/04/03 02:40:49;;;;;;;6.97;1.80;;;;;;;;;;5032258;28;20040;-61
2023/04/03 02:43:15;;;;;;;8.52;1.83;;;;;;;;;;5032351;28;20032;-61
2023/04/03 02:45:41;;;;;;;12.07;2.30;;;;;;;;;;5032234;28;20026;-60
2023/04/03 02:48:08;;;;;;;13.43;2.17;;;;;;;;;;5032244;28;20028;-61
2023/04/03 02:50:34;;;;;;;6.47;2.00;;;;;;;;;;5032266;28;20501;-60
2023/04/03 02:53:00;;;;;;;7.30;1.80;;;;;;;;;;5032140;28;20099;-62
2023/04/03 02:55:26;;;;;;;10.57;3.15;;;;;;;;;;5032090;28;20084;-61
2023/04/03 02:57:52;;;;;;;9.75;2.65;;;;;;;;;;5030742;28;20113;-61
2023/04/03 03:00:18;;;;;;;6.53;1.63;;;;;;;;;;5032230;28;20116;-62
2023/04/03 03:02:44;;;;;;;9.77;1.80;;;;;;;;;;5032166;28;20470;-60
2023/04/03 03:05:10;;;;;;;6.35;1.63;;;;;;;;;;5031851;28;20481;-60
2023/04/03 03:07:36;;;;;;;9.52;2.55;;;;;;;;;;5032022;28;20064;-61
2023/04/03 03:10:02;;;;;;;4.82;1.83;;;;;;;;;;5031714;28;20025;-61
2023/04/03 03:12:28;;;;;;;4.22;1.70;;;;;;;;;;5031741;28;20033;-59
2023/04/03 03:14:54;;;;;;;6.45;2.17;;;;;;;;;;5031151;28;20029;-60
2023/04/03 03:17:20;;;;;;;6.40;1.90;;;;;;;;;;5031630;28;20021;-60
2023/04/03 03:19:46;;;;;;;8.80;2.17;;;;;;;;;;5032078;28;20026;-61
2023/04/03 03:22:12;;;;;;;9.93;1.98;;;;;;;;;;5031844;28;20029;-61
2023/04/03 03:24:38;;;;;;;7.32;2.13;;;;;;;;;;5031842;28;20048;-61
2023/04/03 03:27:05;;;;;;;4.57;1.95;;;;;;;;;;5031829;28;20502;-61
2023/04/03 03:29:31;;;;;;;6.70;1.80;;;;;;;;;;5031718;28;20030;-60
2023/04/03 03:31:57;;;;;;;14.43;2.53;;;;;;;;;;5031596;28;20439;-61
2023/04/03 03:34:23;;;;;;;9.10;2.40;;;;;;;;;;5031645;28;20066;-60
2023/04/03 03:36:49;;;;;;;9.60;2.50;;;;;;;;;;5031366;28;20188;-60
2023/04/03 03:39:15;;;;;;;12.63;2.17;;;;;;;;;;5031485;28;20057;-60
2023/04/03 03:41:41;;;;;;;12.88;3.22;;;;;;;;;;5031055;28;20038;-59
2023/04/03 03:44:07;;;;;;;11.85;2.47;;;;;;;;;;5031364;28;20505;-60
2023/04/03 03:46:34;;;;;;;8.27;3.45;;;;;;;;;;5031467;28;20398;-61
2023/04/03 03:49:00;;;;;;;12.57;2.40;;;;;;;;;;5031352;28;20491;-61
2023/04/03 03:51:26;;;;;;;5.30;1.92;;;;;;;;;;5031251;28;20017;-61
2023/04/03 03:53:52;;;;;;;10.75;2.70;;;;;;;;;;5031176;28;20100;-61
2023/04/03 03:56:18;;;;;;;5.78;1.88;;;;;;;;;;5031474;28;20021;-60
2023/04/03 03:58:44;;;;;;;8.88;2.90;;;;;;;;;;5031191;28;20044;-62
2023/04/03 04:01:10;;;;;;;7.88;2.60;;;;;;;;;;5031253;28;20029;-61
2023/04/03 04:03:36;;;;;;;12.80;3.00;;;;;;;;;;5031283;28;20026;-62
2023/04/03 04:06:03;;;;;;;8.73;2.22;;;;;;;;;;5031123;28;20053;-61
2023/04/03 04:08:29;;;;;;;9.43;2.33;;;;;;;;;;5031088;28;20079;-61
2023/04/03 04:10:55;;;;;;;5.70;2.70;;;;;;;;;;5031011;28;20032;-60
2023/04/03 04:13:21;;;;;;;8.68;2.40;;;;;;;;;;5031282;28;20034;-60
2023/04/03 04:15:47;;;;;;;4.28;2.00;;;;;;;;;;5031069;28;20021;-61
2023/04/03 04:18:13;;;;;;;11.32;3.22;;;;;;;;;;5030987;28;20033;-61
2023/04/03 04:20:39;;;;;;;8.95;3.13;;;;;;;;;;5030971;28;20038;-60
2023/04/03 04:23:05;;;;;;;6.85;2.92;;;;;;;;;;5031091;28;20025;-61
2023/04/03 04:25:32;;;;;;;9.15;3.30;;;;;;;;;;5031195;28;20025;-61
2023/04/03 04:27:58;;;;;;;13.05;3.88;;;;;;;;;;5034362;28;20042;-60
2023/04/03 04:30:24;;;;;;;9.18;3.08;;;;;;;;;;5034955;28;20224;-62
2023/04/03 04:32:50;;;;;;;11.88;3.53;;;;;;;;;;5034963;28;20036;-60
2023/04/03 04:35:16;;;;;;;7.65;3.28;;;;;;;;;;5034886;28;20029;-60
2023/04/03 04:37:43;;;;;;;11.68;3.22;;;;;;;;;;5034565;28;20025;-67
2023/04/03 04:40:09;;;;;;;11.13;3.33;;;;;;;;;;5034731;28;20034;-61
2023/04/03 04:42:35;;;;;;;14.23;3.85;;;;;;;;;;5034581;28;20137;-61
2023/04/03 04:45:01;;;;;;;12.50;4.35;;;;;;;;;;5034587;28;20064;-61
2023/04/03 04:47:30;;;;;;;8.75;3.70;;;;;;;;;;5034691;28;20029;-60
2023/04/03 04:49:56;;;;;;;9.40;3.50;;;;;;;;;;5034667;28;20018;-60
2023/04/03 04:52:22;;;;;;;11.68;4.13;;;;;;;;;;5034354;28;20029;-60
2023/04/03 04:54:48;;;;;;;8.45;3.83;;;;;;;;;;5034335;28;20108;-60
2023/04/03 04:57:15;;;;;;;10.02;3.90;;;;;;;;;;5034342;28;20029;-61
2023/04/03 04:59:41;;;;;;;25.60;4.55;;;;;;;;;;5034430;28;20038;-59
2023/04/03 05:02:07;;;;;;;11.50;3.97;;;;;;;;;;5034268;28;20108;-62
2023/04/03 05:04:33;;;;;;;8.52;3.70;;;;;;;;;;5034082;28;20469;-60
2023/04/03 05:06:59;;;;;;;15.63;3.67;;;;;;;;;;5034169;28;20435;-59
2023/04/03 05:09:25;;;;;;;17.45;3.70;;;;;;;;;;5034177;28;20022;-61
2023/04/03 05:11:51;;;;;;;8.80;3.70;;;;;;;;;;5034440;28;20042;-60
2023/04/03 05:14:18;;;;;;;16.48;4.20;;;;;;;;;;5034439;28;20029;-60
2023/04/03 05:16:44;;;;;;;9.13;3.40;;;;;;;;;;5034154;28;20029;-61
2023/04/03 05:19:10;;;;;;;11.02;3.63;;;;;;;;;;5033888;28;20034;-62
2023/04/03 05:21:36;;;;;;;9.98;3.83;;;;;;;;;;5033988;28;20113;-60
2023/04/03 05:24:02;;;;;;;11.27;3.58;;;;;;;;;;5033963;28;20033;-60
2023/04/03 05:26:29;;;;;;;12.27;3.33;;;;;;;;;;5034005;28;20085;-60
2023/04/03 05:28:56;;;;;;;8.88;3.22;;;;;;;;;;5033733;28;20026;-61
2023/04/03 05:31:22;;;;;;;7.50;3.50;;;;;;;;;;5033792;28;20085;-61
2023/04/03 05:33:48;;;;;;;9.30;3.25;;;;;;;;;;5033835;28;20026;-59
2023/04/03 05:36:14;;;;;;;16.13;3.25;;;;;;;;;;5037702;28;20046;-60
2023/04/03 05:38:40;;;;;;;12.77;3.60;;;;;;;;;;5052307;28;20092;-60
2023/04/03 05:41:07;;;;;;;12.57;3.65;;;;;;;;;;5053285;28;20425;-61
2023/04/03 05:43:34;;;;;;;13.23;4.88;;;;;;;;;;5053565;28;20068;-61
2023/04/03 05:46:00;;;;;;;13.93;3.97;;;;;;;;;;5053215;28;20025;-61
2023/04/03 05:48:26;;;;;;;12.82;6.30;;;;;;;;;;5053562;28;20025;-61
2023/04/03 05:50:52;;;;;;;9.32;3.65;;;;;;;;;;5053018;28;20028;-62
2023/04/03 05:53:22;;;;;;;13.02;3.65;;;;;;;;;;5053276;28;20032;-61
2023/04/03 05:55:48;;;;;;;11.20;4.07;;;;;;;;;;5053165;28;20460;-60
2023/04/03 05:58:14;;;;;;;10.07;4.03;;;;;;;;;;5052907;28;20466;-60
2023/04/03 06:00:40;;;;;;;9.65;3.55;;;;;;;;;;5051989;28;20040;-61
2023/04/03 06:03:06;;;;;;;15.25;3.47;;;;;;;;;;5046620;28;20025;-61
2023/04/03 06:05:32;;;;;;;11.30;3.78;;;;;;;;;;5033316;28;20025;-60
2023/04/03 06:07:58;;;;;;;11.18;4.03;;;;;;;;;;5047286;28;20094;-60
2023/04/03 06:10:25;;;;;;;10.85;4.00;;;;;;;;;;5050074;28;20082;-62
2023/04/03 06:12:51;;;;;;;11.40;4.00;;;;;;;;;;5052890;28;20151;-66
2023/04/03 06:15:17;;;;;;;13.20;4.07;;;;;;;;;;5052769;28;20436;-60
2023/04/03 06:17:44;;;;;;;14.77;4.18;;;;;;;;;;5049996;28;20030;-60
2023/04/03 06:20:10;;;;;;;9.23;4.00;;;;;;;;;;5045521;28;20032;-60
2023/04/03 06:22:36;;;;;;;14.85;4.20;;;;;;;;;;5052654;28;20033;-63
2023/04/03 06:25:02;;;;;;;11.98;3.70;;;;;;;;;;5038539;28;20532;-59
2023/04/03 06:27:28;;;;;;;12.77;4.18;;;;;;;;;;5033286;28;20033;-61
2023/04/03 06:29:55;;;;;;;12.10;4.65;;;;;;;;;;5032725;28;20113;-61
2023/04/03 06:32:21;;;;;;;7.25;4.00;;;;;;;;;;5032031;28;20029;-61
2023/04/03 06:34:47;;;;;;;13.73;3.70;;;;;;;;;;5041076;28;20036;-60
2023/04/03 06:37:17;;;;;;;11.20;3.42;;;;;;;;;;5052439;28;20017;-60
2023/04/03 06:39:43;;;;;;;12.18;4.43;;;;;;;;;;5052325;28;20025;-60
2023/04/03 06:42:09;;;;;;;12.77;4.07;;;;;;;;;;5049966;28;20048;-61
2023/04/03 06:44:35;;;;;;;12.82;3.55;;;;;;;;;;5038143;28;20040;-60
2023/04/03 06:47:01;;;;;;;9.60;3.92;;;;;;;;;;5042482;28;20017;-61
2023/04/03 06:49:28;;;;;;;18.98;4.47;;;;;;;;;;5051901;28;20159;-60
2023/04/03 06:51:55;;;;;;;11.63;4.45;;;;;;;;;;5052518;28;20036;-60
2023/04/03 06:54:22;;;;;;;13.98;5.05;;;;;;;;;;5047775;28;20021;-61
2023/04/03 06:56:48;;;;;;;15.25;4.30;;;;;;;;;;5040707;28;20025;-61
2023/04/03 06:59:14;;;;;;;12.45;4.53;;;;;;;;;;5032600;28;20041;-61
2023/04/03 07:01:41;;;;;;;9.00;4.13;;;;;;;;;;5033230;28;20581;-61
2023/04/03 07:04:07;;;;;;;9.65;3.70;;;;;;;;;;5031796;28;20021;-61
2023/04/03 07:06:34;;;;;;;8.57;4.10;;;;;;;;;;5043370;28;20033;-61
2023/04/03 07:09:01;;;;;;;7.00;3.50;;;;;;;;;;5051856;28;20067;-63
2023/04/03 07:11:27;;;;;;;12.15;4.25;;;;;;;;;;5051948;28;20029;-61
2023/04/03 07:13:53;;;;;;;10.55;4.38;;;;;;;;;;5051918;28;20107;-62
2023/04/03 07:16:20;;;;;;;11.10;4.35;;;;;;;;;;5038995;28;20028;-61
2023/04/03 07:18:46;;;;;;;10.68;4.03;;;;;;;;;;5036909;28;20065;-61
2023/04/03 07:21:13;;;;;;;14.18;4.13;;;;;;;;;;5035198;28;20401;-62
2023/04/03 07:23:39;;;;;;;16.13;4.78;;;;;;;;;;5031705;28;20030;-60
2023/04/03 07:26:06;;;;;;;13.68;3.97;;;;;;;;;;5031648;28;20068;-61
2023/04/03 07:28:32;;;;;;;12.80;3.97;;;;;;;;;;5031170;28;20067;-61
2023/04/03 07:31:02;;;;;;;19.25;4.35;;;;;;;;;;5044898;28;20025;-61
2023/04/03 07:33:29;;;;;;;12.45;4.15;;;;;;;;;;5069727;28;20025;-61
2023/04/03 07:35:55;;;;;;;17.05;4.28;;;;;;;;;;5057478;28;20469;-62
2023/04/03 07:38:21;;;;;;;11.73;4.32;;;;;;;;;;5039858;28;21376;-62
2023/04/03 07:40:48;;;;;;;12.27;4.30;;;;;;;;;;5043901;28;20072;-61
2023/04/03 07:43:15;;;;;;;16.95;4.75;;;;;;;;;;5031818;28;20060;-62
2023/04/03 07:45:41;;;;;;;14.45;4.82;;;;;;;;;;5041508;28;20033;-61
2023/04/03 07:48:07;;;;;;;12.20;4.10;;;;;;;;;;5040028;28;20021;-60
2023/04/03 07:50:34;;;;;;;12.15;4.53;;;;;;;;;;5051554;28;20021;-61
2023/04/03 07:53:00;;;;;;;8.48;4.38;;;;;;;;;;5041971;28;20071;-62
2023/04/03 07:55:26;;;;;;;10.65;4.55;;;;;;;;;;5043140;28;20491;-61
2023/04/03 07:57:52;;;;;;;10.20;4.25;;;;;;;;;;5051023;28;20025;-60
2023/04/03 08:00:19;;;;;;;15.45;4.78;;;;;;;;;;5039548;28;20039;-60
2023/04/03 08:02:50;;;;;;;15.23;4.68;;;;;;;;;;5050854;28;20028;-60
2023/04/03 08:05:16;;;;;;;11.13;5.05;;;;;;;;;;5051052;28;20033;-60
2023/04/03 08:07:42;;;;;;;10.07;4.00;;;;;;;;;;5051082;28;20029;-61
2023/04/03 08:10:09;;;;;;;9.77;4.88;;;;;;;;;;5050520;28;20025;-61
2023/04/03 08:12:36;;;;;;;13.75;4.63;;;;;;;;;;5031918;28;20117;-60
2023/04/03 08:15:03;;;;;;;11.82;4.65;;;;;;;;;;5031314;28;20017;-60
2023/04/03 08:17:29;;;;;;;13.35;4.55;;;;;;;;;;5031329;28;20064;-63
2023/04/03 08:19:55;;;;;;;7.40;3.75;;;;;;;;;;5031054;28;20079;-60
2023/04/03 08:22:21;;;;;;;10.20;4.10;;;;;;;;;;5031059;28;20025;-60
2023/04/03 08:24:47;;;;;;;10.95;4.13;;;;;;;;;;5030876;28;20075;-61
2023/04/03 08:27:13;;;;;;;6.97;3.30;;;;;;;;;;5030933;28;20104;-61
2023/04/03 08:29:39;;;;;;;10.23;4.10;;;;;;;;;;5030992;28;20107;-61
2023/04/03 08:32:06;;;;;;;13.48;3.78;;;;;;;;;;5030824;28;20032;-60
2023/04/03 08:34:36;;;;;;;10.95;3.95;;;;;;;;;;5031415;28;20559;-63
2023/04/03 08:37:02;;;;;;;9.02;3.80;;;;;;;;;;5033242;28;20062;-61
2023/04/03 08:39:29;;;;;;;12.02;4.00;;;;;;;;;;5047930;28;20115;-60
2023/04/03 08:41:58;;;;;;;8.88;3.60;;;;;;;;;;5038803;28;20045;-61
2023/04/03 08:44:42;;;;;;;8.35;3.67;;;;;;;;;;5032742;28;20025;-62
2023/04/03 08:47:14;;;;;;;13.05;4.38;;;;;;;;;;5043174;28;20018;-63
2023/04/03 08:49:50;;;;;;;7.43;3.60;;;;;;;;;;5050566;28;20035;-59
2023/04/03 08:52:35;;;;;;;12.32;4.07;;;;;;;;;;5048896;28;20021;-60
2023/04/03 08:55:07;;;;;;;9.25;3.90;;;;;;;;;;5048766;28;20029;-60
2023/04/03 08:57:39;;;;;;;10.23;3.92;;;;;;;;;;5049439;28;20071;-60
2023/04/03 09:00:05;;;;;;;;;;;;;;;;;;5050936;28;20048;-60
2023/04/03 09:02:43;;;;;;;5.43;4.20;;;;;;;;;;5046996;28;19909;-61
2023/04/03 09:05:13;;;;;;;9.50;4.68;;;;;;;;;;5050628;28;20044;-60
2023/04/03 09:07:42;;;;;;;11.48;5.70;;;;;;;;;;5050681;28;20469;-60
2023/04/03 09:10:10;;;;;;;10.20;4.90;;;;;;;;;;5046681;28;20488;-59
2023/04/03 09:12:39;;;;;;;9.68;5.32;;;;;;;;;;5047720;28;20079;-59
2023/04/03 09:15:05;;;;;;;10.88;5.90;;;;;;;;;;5053574;28;20544;-61
2023/04/03 09:17:43;;;;;;;12.65;5.95;;;;;;;;;;5052120;28;20036;-60
2023/04/03 09:20:21;;;;;;;12.32;6.35;;;;;;;;;;5052755;28;20029;-60
2023/04/03 09:22:49;;;;;;;9.07;6.47;;;;;;;;;;5053788;28;20021;-60
2023/04/03 09:25:21;;;;;;;14.50;5.97;;;;;;;;;;5053598;28;20075;-60
2023/04/03 09:27:47;;;;;;;11.85;7.40;;;;;;;;;;5052879;28;20032;-59
2023/04/03 09:30:17;;;;;;;13.10;8.20;;;;;;;;;;5053574;28;20021;-61
2023/04/03 09:32:47;;;;;;;14.00;7.68;;;;;;;;;;5051681;28;20290;-61
2023/04/03 09:35:27;;;;;;;12.23;8.40;;;;;;;;;;5052841;28;20021;-61
2023/04/03 09:37:56;;;;;;;18.67;9.30;;;;;;;;;;5052194;28;20017;-61
2023/04/03 09:40:25;;;;;;;12.68;9.05;;;;;;;;;;5053202;28;20029;-60
2023/04/03 09:42:52;;;;;;;12.40;8.70;;;;;;;;;;5051466;28;20045;-60
2023/04/03 09:45:30;;;;;;;16.83;8.68;;;;;;;;;;5036373;28;20087;-60
2023/04/03 09:48:15;;;;;;;15.00;8.10;;;;;;;;;;5033600;28;20073;-59
2023/04/03 09:50:51;;;;;;;17.48;8.38;;;;;;;;;;5033300;28;20104;-60
2023/04/03 09:53:32;;;;;;;13.18;6.30;;;;;;;;;;5033379;28;20489;-61
2023/04/03 09:55:59;;;;;;;10.55;5.50;;;;;;;;;;5036250;28;20079;-60
2023/04/03 09:58:27;;;;;;;11.55;5.35;;;;;;;;;;5052621;28;20040;-60
2023/04/03 10:00:57;;;;;;;10.80;5.65;;;;;;;;;;5033332;28;20504;-60
2023/04/03 10:03:39;;;;;;;8.55;5.85;;;;;;;;;;5033018;28;20029;-60
2023/04/03 10:06:22;;;;;;;8.55;5.50;;;;;;;;;;5033341;28;20030;-60
2023/04/03 10:08:58;;;;;;;7.05;5.38;;;;;;;;;;5033052;28;20108;-60
2023/04/03 10:11:24;;;;;;;7.95;5.30;;;;;;;;;;5034329;28;20032;-60
2023/04/03 10:14:00;;;;;;;7.82;4.70;;;;;;;;;;5033118;28;20025;-59
2023/04/03 10:16:27;;;;;;;10.20;4.43;;;;;;;;;;5038220;28;20068;-60
2023/04/03 10:19:05;;;;;;;10.00;3.63;;;;;;;;;;5052731;28;20044;-59
2023/04/03 10:21:50;;;;;;;6.40;3.58;;;;;;;;;;5051886;28;20031;-59
2023/04/03 10:24:25;;;;;;;7.18;3.92;;;;;;;;;;5052335;28;20040;-60
2023/04/03 10:26:57;;;;;;;8.30;3.25;;;;;;;;;;5051676;28;20098;-61
2023/04/03 10:29:41;;;;;;;6.97;3.70;;;;;;;;;;5051224;28;20043;-60
2023/04/03 10:32:28;;;;;;;4.75;2.83;;;;;;;;;;5051221;28;20500;-60
2023/04/03 10:35:03;;;;;;;8.10;3.60;;;;;;;;;;5032395;28;20049;-59
2023/04/03 10:37:41;;;;;;;4.28;2.90;;;;;;;;;;5032456;28;20021;-60
2023/04/03 10:40:26;;;;;;;9.20;2.92;;;;;;;;;;5032424;28;20029;-60
2023/04/03 10:43:09;;;;;;;7.07;2.92;;;;;;;;;;5033447;28;20168;-59
2023/04/03 10:45:47;;;;;;;3.30;2.55;;;;;;;;;;5040317;28;20497;-60
2023/04/03 10:48:29;;;;;;;4.75;3.22;;;;;;;;;;5038910;28;20424;-59
2023/04/03 10:51:07;;;;;;;5.70;2.95;;;;;;;;;;5035835;28;20159;-59
2023/04/03 10:53:36;;;;;;;6.55;3.08;;;;;;;;;;5033520;28;20025;-60
2023/04/03 10:56:02;;;;;;;7.13;3.00;;;;;;;;;;5044749;28;20024;-58
2023/04/03 10:58:34;;;;;;;7.90;3.03;;;;;;;;;;5050625;28;20102;-59
2023/04/03 11:01:05;;;;;;;3.67;2.63;;;;;;;;;;5033648;28;20018;-59
2023/04/03 11:03:33;;;;;;;6.10;2.75;;;;;;;;;;5037613;28;20524;-60
2023/04/03 11:06:00;;;;;;;4.95;2.75;;;;;;;;;;5047658;28;20108;-59
2023/04/03 11:08:36;;;;;;;7.32;2.40;;;;;;;;;;5039788;28;20090;-59
2023/04/03 11:11:05;;;;;;;4.43;2.70;;;;;;;;;;5048919;28;20025;-60
2023/04/03 11:13:38;;;;;;;7.78;2.55;;;;;;;;;;5033973;28;20018;-60
2023/04/03 11:16:05;;;;;;;8.00;2.30;;;;;;;;;;5031570;28;20033;-61
2023/04/03 11:18:44;;;;;;;3.85;1.95;;;;;;;;;;5032587;28;20045;-61
2023/04/03 11:21:17;;;;;;;4.05;2.30;;;;;;;;;;5044044;28;20029;-61
2023/04/03 11:23:44;;;;;;;4.85;2.33;;;;;;;;;;5051425;28;20074;-63
2023/04/03 11:26:15;;;;;;;4.90;2.10;;;;;;;;;;5042718;28;20021;-61
2023/04/03 11:28:42;;;;;;;8.98;2.50;;;;;;;;;;5050887;28;20281;-61
2023/04/03 11:31:29;;;;;;;8.82;2.55;;;;;;;;;;5051613;28;20492;-62
2023/04/03 11:34:13;;;;;;;8.93;2.40;;;;;;;;;;5051545;28;20025;-60
2023/04/03 11:36:48;;;;;;;4.22;2.40;;;;;;;;;;5047393;28;20039;-61
2023/04/03 11:39:23;;;;;;;4.75;2.03;;;;;;;;;;5039953;28;20639;-61
2023/04/03 11:41:50;;;;;;;4.35;2.00;;;;;;;;;;5031273;28;20168;-61
2023/04/03 11:44:36;;;;;;;5.53;2.22;;;;;;;;;;5031903;28;20040;-60
2023/04/03 11:47:03;;;;;;;7.13;2.20;;;;;;;;;;5031343;28;20026;-60
2023/04/03 11:49:47;;;;;;;2.78;1.98;;;;;;;;;;5032290;28;20095;-61
2023/04/03 11:52:34;;;;;;;5.95;2.38;;;;;;;;;;5044840;28;20033;-60
2023/04/03 11:55:00;;;;;;;3.45;2.17;;;;;;;;;;5041124;28;20543;-61
2023/04/03 11:57:58;;;;;;;5.70;2.00;;;;;;;;;;5031076;28;20025;-61
2023/04/03 12:00:43;;;;;;;5.38;2.20;;;;;;;;;;5051261;28;20051;-59
2023/04/03 12:03:27;;;;;;;5.38;1.90;;;;;;;;;;5044033;28;20043;-60
2023/04/03 12:05:59;;;;;;;6.65;2.40;;;;;;;;;;5032036;28;20036;-62
2023/04/03 12:08:29;;;;;;;4.68;2.33;;;;;;;;;;5032305;28;20091;-62
2023/04/03 12:13:37;;;;;;;5.07;2.07;;;;;;;;;;5030539;28;20030;-62
2023/04/03 12:16:05;;;;;;;5.35;2.00;;;;;;;;;;5030905;28;20554;-62
2023/04/03 12:18:44;;;;;;;6.47;2.40;;;;;;;;;;5046307;28;20493;-62
2023/04/03 12:21:11;;;;;;;6.93;1.90;;;;;;;;;;5049869;28;20445;-61
2023/04/03 12:23:57;;;;;;;4.47;1.70;;;;;;;;;;5038381;28;20482;-61
2023/04/03 12:26:31;;;;;;;6.15;2.25;;;;;;;;;;5048271;28;20033;-60
2023/04/03 12:28:57;;;;;;;5.25;2.13;;;;;;;;;;5031162;28;20026;-61
2023/04/03 12:31:26;;;;;;;5.30;2.20;;;;;;;;;;5030995;28;20017;-60
2023/04/03 12:34:10;;;;;;;8.52;2.50;;;;;;;;;;5030852;28;20052;-60
2023/04/03 12:36:43;;;;;;;6.07;2.42;;;;;;;;;;5030973;28;20025;-61
2023/04/03 12:39:26;;;;;;;3.40;2.00;;;;;;;;;;5034435;28;20106;-60
2023/04/03 12:42:04;;;;;;;4.88;2.20;;;;;;;;;;5035926;28;20494;-61
2023/04/03 12:44:47;;;;;;;3.60;1.90;;;;;;;;;;5039951;28;20056;-61
2023/04/03 12:47:23;;;;;;;3.05;1.70;;;;;;;;;;5031205;28;20022;-60
2023/04/03 12:49:50;;;;;;;4.03;2.10;;;;;;;;;;5032941;28;20382;-60
2023/04/03 12:52:22;;;;;;;4.07;2.08;;;;;;;;;;5034608;28;20079;-60
2023/04/03 12:54:48;;;;;;;5.30;1.63;;;;;;;;;;5040351;28;20100;-60
2023/04/03 12:57:17;;;;;;;4.32;1.63;;;;;;;;;;5054219;28;20401;-61
2023/04/03 12:59:45;;;;;;;3.05;1.55;;;;;;;;;;5039807;28;20041;-61
2023/04/03 13:02:17;;;;;;;4.07;2.03;;;;;;;;;;5050408;28;20035;-60
2023/04/03 13:04:43;;;;;;;6.18;1.85;;;;;;;;;;5045830;28;20026;-63
2023/04/03 13:07:19;;;;;;;2.97;1.60;;;;;;;;;;5035347;28;20029;-62
2023/04/03 13:09:55;;;;;;;2.72;1.70;;;;;;;;;;5033990;28;20084;-62
2023/04/03 13:12:21;;;;;;;4.78;1.98;;;;;;;;;;5033916;28;20509;-62
2023/04/03 13:14:55;;;;;;;3.38;1.90;;;;;;;;;;5037624;28;20028;-62
2023/04/03 13:17:21;;;;;;;3.97;1.73;;;;;;;;;;5053242;28;20029;-62
2023/04/03 13:19:48;;;;;;;5.32;1.75;;;;;;;;;;5049343;28;20033;-61
2023/04/03 13:22:27;;;;;;;4.50;1.90;;;;;;;;;;5034080;28;20017;-63
2023/04/03 13:24:54;;;;;;;6.50;2.13;;;;;;;;;;5033802;28;20104;-62
2023/04/03 13:27:21;;;;;;;3.58;1.75;;;;;;;;;;5034019;28;20076;-63
2023/04/03 13:29:51;;;;;;;2.72;1.70;;;;;;;;;;5034198;28;20060;-62
2023/04/03 13:32:20;;;;;;;5.35;2.22;;;;;;;;;;5035872;28;20025;-62
2023/04/03 13:34:46;;;;;;;4.22;1.80;;;;;;;;;;5033696;28;20064;-61
2023/04/03 13:37:26;;;;;;;5.22;2.00;;;;;;;;;;5033174;28;20021;-62
2023/04/03 13:40:00;;;;;;;4.55;2.00;;;;;;;;;;5033523;28;20041;-62
2023/04/03 13:42:29;;;;;;;4.07;2.00;;;;;;;;;;5033712;28;20041;-62
2023/04/03 13:45:14;;;;;;;5.30;1.70;;;;;;;;;;5033615;28;20053;-62
2023/04/03 13:47:43;;;;;;;5.15;2.10;;;;;;;;;;5036829;28;20111;-62
2023/04/03 13:50:12;;;;;;;3.03;1.63;;;;;;;;;;5040414;28;20453;-62
2023/04/03 13:52:55;;;;;;;4.32;1.65;;;;;;;;;;5035949;28;20033;-61
2023/04/03 13:55:29;;;;;;;4.22;1.77;;;;;;;;;;5041059;28;20448;-62
2023/04/03 13:57:58;;;;;;;3.70;1.90;;;;;;;;;;5035294;28;20029;-62
2023/04/03 14:00:47;;;;;;;3.60;1.70;;;;;;;;;;5032566;28;20037;-62
2023/04/03 14:03:19;;;;;;;3.75;1.50;;;;;;;;;;5031535;28;20021;-63
2023/04/03 14:05:45;;;;;;;;;;;;;;;;;;5033683;28;20500;-61
2023/04/03 14:08:11;;;;;;;3.40;1.60;;;;;;;;;;5034867;28;20397;-62
2023/04/03 14:10:38;;;;;;;4.45;1.70;;;;;;;;;;5032815;28;20033;-61
2023/04/03 14:13:04;;;;;;;3.70;1.75;;;;;;;;;;5045275;28;20036;-60
2023/04/03 14:15:31;;;;;;;3.30;1.35;;;;;;;;;;5033561;28;20394;-64
2023/04/03 14:17:58;;;;;;;4.47;1.83;;;;;;;;;;5032973;28;20040;-62
2023/04/03 14:20:25;;;;;;;4.25;1.77;;;;;;;;;;5032739;28;20512;-61
2023/04/03 14:22:52;;;;;;;4.30;1.80;;;;;;;;;;5034278;28;20032;-60
2023/04/03 14:25:18;;;;;;;2.42;1.60;;;;;;;;;;5032836;28;20097;-60
2023/04/03 14:27:47;;;;;;;3.72;1.60;;;;;;;;;;5032589;28;20477;-59
2023/04/03 14:30:24;;;;;;;3.38;1.80;;;;;;;;;;5032249;28;20034;-61
2023/04/03 14:32:50;;;;;;;4.28;1.60;;;;;;;;;;5032757;28;20021;-61
2023/04/03 14:35:18;;;;;;;4.30;1.60;;;;;;;;;;5031198;28;20028;-61
2023/04/03 14:37:44;;;;;;;2.55;1.52;;;;;;;;;;5034974;28;20040;-60
2023/04/03 14:40:13;;;;;;;6.05;1.83;;;;;;;;;;5052674;28;20029;-61
2023/04/03 14:42:40;;;;;;;2.38;1.50;;;;;;;;;;5052502;28;20049;-61
2023/04/03 14:45:08;;;;;;;5.47;1.80;;;;;;;;;;5046929;28;20111;-61
2023/04/03 14:47:36;;;;;;;4.95;1.60;;;;;;;;;;5032520;28;20037;-59
2023/04/03 14:50:04;;;;;;;4.47;1.80;;;;;;;;;;5031284;28;20029;-60
2023/04/03 14:52:33;;;;;;;2.92;1.80;;;;;;;;;;5047056;28;20059;-60